createdAt,value
2018-11-21T00:00:07.465Z,1.80
2018-11-21T00:02:35.813Z,1.70
2018-11-21T00:05:04.627Z,1.70
2018-11-21T00:07:36.239Z,1.70
2018-11-21T00:10:09.240Z,1.70
2018-11-21T00:12:38.410Z,1.70
2018-11-21T00:15:08.548Z,1.70
2018-11-21T00:17:36.908Z,1.70
2018-11-21T00:20:06.271Z,1.60
2018-11-21T00:22:34.810Z,1.60
2018-11-21T00:25:03.181Z,1.60
2018-11-21T00:27:31.523Z,1.60
2018-11-21T00:30:00.058Z,1.60
2018-11-21T00:32:28.714Z,1.70
2018-11-21T00:34:57.126Z,1.80
2018-11-21T00:37:26.101Z,2.00
2018-11-21T00:39:54.793Z,2.20
2018-11-21T00:42:23.165Z,2.40
2018-11-21T00:44:51.515Z,2.50
2018-11-21T00:47:19.848Z,2.60
2018-11-21T00:49:48.215Z,2.60
2018-11-21T00:52:16.571Z,2.70
2018-11-21T00:54:44.927Z,2.70
2018-11-21T00:57:13.264Z,2.70
2018-11-21T00:59:41.629Z,2.80
2018-11-21T01:02:10.002Z,2.90
2018-11-21T01:04:38.331Z,2.90
2018-11-21T01:07:06.698Z,3.00
2018-11-21T01:09:35.041Z,3.10
2018-11-21T01:12:03.408Z,3.10
2018-11-21T01:14:31.752Z,3.00
2018-11-21T01:17:00.129Z,3.00
2018-11-21T01:19:28.469Z,3.10
2018-11-21T01:21:56.843Z,3.20
2018-11-21T01:24:25.221Z,3.20
2018-11-21T01:26:53.563Z,3.20
2018-11-21T01:29:21.917Z,3.10
2018-11-21T01:31:50.256Z,3.10
2018-11-21T01:34:18.602Z,3.10
2018-11-21T01:36:46.968Z,3.10
2018-11-21T01:39:15.302Z,3.10
2018-11-21T01:41:43.660Z,3.20
2018-11-21T01:44:12.038Z,3.20
2018-11-21T01:46:40.398Z,3.20
2018-11-21T01:49:08.740Z,3.20
2018-11-21T01:51:37.121Z,3.30
2018-11-21T01:54:05.757Z,3.30
2018-11-21T01:56:34.127Z,3.30
2018-11-21T01:59:02.485Z,3.30
2018-11-21T02:01:30.852Z,3.30
2018-11-21T02:03:59.199Z,3.30
2018-11-21T02:06:27.563Z,3.20
2018-11-21T02:08:55.910Z,3.20
2018-11-21T02:11:24.265Z,3.20
2018-11-21T02:13:52.596Z,3.20
2018-11-21T02:16:20.899Z,3.20
2018-11-21T02:18:49.272Z,3.20
2018-11-21T02:21:17.613Z,3.20
2018-11-21T02:23:45.989Z,3.20
2018-11-21T02:26:14.317Z,3.20
2018-11-21T02:28:42.686Z,3.20
2018-11-21T02:31:11.065Z,3.20
2018-11-21T02:33:39.435Z,3.20
2018-11-21T02:36:07.818Z,3.20
2018-11-21T02:38:36.178Z,3.20
2018-11-21T02:41:04.743Z,3.20
2018-11-21T02:43:33.123Z,3.20
2018-11-21T02:46:01.465Z,3.20
2018-11-21T02:48:29.801Z,3.20
2018-11-21T02:50:58.170Z,3.20
2018-11-21T02:53:26.608Z,3.20
2018-11-21T02:55:54.991Z,3.20
2018-11-21T02:58:23.333Z,3.20
2018-11-21T03:00:51.674Z,3.30
2018-11-21T03:03:20.060Z,3.30
2018-11-21T03:05:48.393Z,3.30
2018-11-21T03:08:16.722Z,3.30
2018-11-21T03:10:45.109Z,3.40
2018-11-21T03:13:13.542Z,3.30
2018-11-21T03:15:41.939Z,3.30
2018-11-21T03:18:10.416Z,3.30
2018-11-21T03:20:38.747Z,3.30
2018-11-21T03:23:07.135Z,3.30
2018-11-21T03:25:35.475Z,3.30
2018-11-21T03:28:03.843Z,3.30
2018-11-21T03:30:32.195Z,3.40
2018-11-21T03:33:00.558Z,3.40
2018-11-21T03:35:28.900Z,3.40
2018-11-21T03:37:57.251Z,3.40
2018-11-21T03:40:25.585Z,3.40
2018-11-21T03:42:53.938Z,3.40
2018-11-21T03:45:22.331Z,3.40
2018-11-21T03:47:50.690Z,3.40
2018-11-21T03:50:19.048Z,3.30
2018-11-21T03:52:47.399Z,3.30
2018-11-21T03:55:15.740Z,3.30
2018-11-21T03:57:44.098Z,3.30
2018-11-21T04:00:13.576Z,3.30
2018-11-21T04:02:42.336Z,3.30
2018-11-21T04:05:11.042Z,3.30
2018-11-21T04:07:39.428Z,3.30
2018-11-21T04:10:10.095Z,3.40
2018-11-21T04:12:38.458Z,3.30
2018-11-21T04:15:08.780Z,3.30
2018-11-21T04:17:37.214Z,3.30
2018-11-21T04:20:06.221Z,3.30
2018-11-21T04:22:34.581Z,3.30
2018-11-21T04:25:02.938Z,3.30
2018-11-21T04:27:31.321Z,3.30
2018-11-21T04:29:59.674Z,3.30
2018-11-21T04:32:28.205Z,3.30
2018-11-21T04:34:56.554Z,3.30
2018-11-21T04:37:24.920Z,3.30
2018-11-21T04:39:53.280Z,3.30
2018-11-21T04:42:21.716Z,3.30
2018-11-21T04:44:50.077Z,3.30
2018-11-21T04:47:18.412Z,3.30
2018-11-21T04:49:46.797Z,3.30
2018-11-21T04:52:15.148Z,3.30
2018-11-21T04:54:43.497Z,3.30
2018-11-21T04:57:11.829Z,3.30
2018-11-21T04:59:40.183Z,3.30
2018-11-21T05:02:08.536Z,3.30
2018-11-21T05:04:36.912Z,3.30
2018-11-21T05:07:05.300Z,3.30
2018-11-21T05:09:33.646Z,3.30
2018-11-21T05:12:02.039Z,3.20
2018-11-21T05:14:30.381Z,3.20
2018-11-21T05:16:58.820Z,3.20
2018-11-21T05:19:27.187Z,3.20
2018-11-21T05:21:55.567Z,3.20
2018-11-21T05:24:23.933Z,3.20
2018-11-21T05:26:52.281Z,3.20
2018-11-21T05:29:20.675Z,3.20
2018-11-21T05:31:49.050Z,3.10
2018-11-21T05:34:17.404Z,3.20
2018-11-21T05:36:45.763Z,3.10
2018-11-21T05:39:14.122Z,3.10
2018-11-21T05:41:42.475Z,3.00
2018-11-21T05:44:10.848Z,3.00
2018-11-21T05:46:39.254Z,3.00
2018-11-21T05:49:07.748Z,3.00
2018-11-21T05:51:36.134Z,3.00
2018-11-21T05:54:04.505Z,3.00
2018-11-21T05:56:32.864Z,3.00
2018-11-21T05:59:01.241Z,3.00
2018-11-21T06:01:29.606Z,3.00
2018-11-21T06:03:57.997Z,3.10
2018-11-21T06:06:26.327Z,3.10
2018-11-21T06:08:54.680Z,3.10
2018-11-21T06:11:23.031Z,3.10
2018-11-21T06:13:51.400Z,3.10
2018-11-21T06:16:19.757Z,3.20
2018-11-21T06:18:48.383Z,3.20
2018-11-21T06:21:16.751Z,3.20
2018-11-21T06:23:45.097Z,3.30
2018-11-21T06:26:13.481Z,3.30
2018-11-21T06:28:41.827Z,3.30
2018-11-21T06:31:10.188Z,3.30
2018-11-21T06:33:38.539Z,3.30
2018-11-21T06:36:06.874Z,3.40
2018-11-21T06:38:35.209Z,3.40
2018-11-21T06:41:03.697Z,3.50
2018-11-21T06:43:32.039Z,3.50
2018-11-21T06:46:00.379Z,3.40
2018-11-21T06:48:28.737Z,3.40
2018-11-21T06:50:57.097Z,3.40
2018-11-21T06:53:25.489Z,3.40
2018-11-21T06:55:53.839Z,3.40
2018-11-21T06:58:22.316Z,3.40
2018-11-21T07:00:50.665Z,3.40
2018-11-21T07:03:19.108Z,3.50
2018-11-21T07:05:47.459Z,3.50
2018-11-21T07:08:15.802Z,3.50
2018-11-21T07:10:44.139Z,3.50
2018-11-21T07:13:12.518Z,3.50
2018-11-21T07:15:40.862Z,3.50
2018-11-21T07:18:09.332Z,3.50
2018-11-21T07:20:37.668Z,3.50
2018-11-21T07:23:06.052Z,3.50
2018-11-21T07:25:34.395Z,3.50
2018-11-21T07:28:02.747Z,3.60
2018-11-21T07:30:31.105Z,3.60
2018-11-21T07:32:59.476Z,3.70
2018-11-21T07:35:27.809Z,3.70
2018-11-21T07:37:56.186Z,3.70
2018-11-21T07:40:24.526Z,3.70
2018-11-21T07:42:52.876Z,3.70
2018-11-21T07:45:21.226Z,3.70
2018-11-21T07:47:49.692Z,3.70
2018-11-21T07:50:19.623Z,3.70
2018-11-21T07:52:48.005Z,3.70
2018-11-21T07:55:16.304Z,3.60
2018-11-21T07:58:05.374Z,3.70
2018-11-21T08:01:25.130Z,3.70
2018-11-21T08:03:58.537Z,3.60
2018-11-21T08:06:33.961Z,3.70
2018-11-21T08:09:24.212Z,3.70
2018-11-21T08:12:10.251Z,3.70
2018-11-21T08:15:00.690Z,3.70
2018-11-21T08:17:47.197Z,3.70
2018-11-21T08:20:41.022Z,3.70
2018-11-21T08:23:43.898Z,3.70
2018-11-21T08:26:29.491Z,3.70
2018-11-21T08:28:57.842Z,3.70
2018-11-21T08:31:26.194Z,3.70
2018-11-21T08:33:54.560Z,3.70
2018-11-21T08:36:22.948Z,3.80
2018-11-21T08:38:51.293Z,3.80
2018-11-21T08:41:19.643Z,3.70
2018-11-21T08:43:47.995Z,3.80
2018-11-21T08:46:16.348Z,3.90
2018-11-21T08:48:44.692Z,3.90
2018-11-21T08:51:13.064Z,3.80
2018-11-21T08:53:41.394Z,3.90
2018-11-21T08:56:09.751Z,3.80
2018-11-21T08:58:38.080Z,3.80
2018-11-21T09:01:06.419Z,3.80
2018-11-21T09:03:34.740Z,3.80
2018-11-21T09:06:04.477Z,3.80
2018-11-21T09:08:31.547Z,3.80
2018-11-21T09:11:00.498Z,3.90
2018-11-21T09:13:28.870Z,3.90
2018-11-21T09:15:57.370Z,3.90
2018-11-21T09:18:25.713Z,3.90
2018-11-21T09:20:54.938Z,3.90
2018-11-21T09:23:23.310Z,3.90
2018-11-21T09:25:51.729Z,3.80
2018-11-21T09:28:20.110Z,3.90
2018-11-21T09:30:48.533Z,3.90
2018-11-21T09:33:16.884Z,3.90
2018-11-21T09:35:46.104Z,4.00
2018-11-21T09:38:14.501Z,4.10
2018-11-21T09:40:43.076Z,4.00
2018-11-21T09:43:11.637Z,4.10
2018-11-21T09:45:40.013Z,4.10
2018-11-21T09:48:08.364Z,4.00
2018-11-21T09:50:36.753Z,4.00
2018-11-21T09:53:05.526Z,3.90
2018-11-21T09:55:33.918Z,3.90
2018-11-21T09:58:02.273Z,3.90
2018-11-21T10:01:07.452Z,4.00
2018-11-21T10:03:37.136Z,4.00
2018-11-21T10:06:10.939Z,4.00
2018-11-21T10:08:46.595Z,4.00
2018-11-21T10:11:15.390Z,4.00
2018-11-21T10:13:43.811Z,4.00
2018-11-21T10:16:12.138Z,4.00
2018-11-21T10:18:42.068Z,4.00
2018-11-21T10:21:12.047Z,4.00
2018-11-21T10:23:40.400Z,4.00
2018-11-21T10:26:09.024Z,4.10
2018-11-21T10:28:37.882Z,4.10
2018-11-21T10:31:06.265Z,4.20
2018-11-21T10:33:34.638Z,4.20
2018-11-21T10:36:03.374Z,4.30
2018-11-21T10:38:31.737Z,4.30
2018-11-21T10:41:00.096Z,4.30
2018-11-21T10:43:28.570Z,4.20
2018-11-21T10:45:56.829Z,4.20
2018-11-21T10:48:25.193Z,4.20
2018-11-21T10:50:53.560Z,4.20
2018-11-21T10:53:21.916Z,4.20
2018-11-21T10:55:50.294Z,4.20
2018-11-21T10:58:18.659Z,4.20
2018-11-21T11:01:04.615Z,4.20
2018-11-21T11:03:52.115Z,4.30
2018-11-21T11:06:51.989Z,4.30
2018-11-21T11:09:48.523Z,4.20
2018-11-21T11:12:54.005Z,4.20
2018-11-21T11:15:47.549Z,4.10
2018-11-21T11:18:26.299Z,4.10
2018-11-21T11:21:12.620Z,4.20
2018-11-21T11:24:09.736Z,4.30
2018-11-21T11:26:57.273Z,4.30
2018-11-21T11:29:49.199Z,4.30
2018-11-21T11:32:35.383Z,4.30
2018-11-21T11:35:21.182Z,4.40
2018-11-21T11:38:17.957Z,4.40
2018-11-21T11:41:04.565Z,4.40
2018-11-21T11:44:01.562Z,4.50
2018-11-21T11:46:37.347Z,4.50
2018-11-21T11:49:33.980Z,4.50
2018-11-21T11:52:20.424Z,4.50
2018-11-21T11:55:08.304Z,4.40
2018-11-21T11:58:04.702Z,4.40
2018-11-21T12:00:51.000Z,4.40
2018-11-21T12:03:38.157Z,4.30
2018-11-21T12:06:24.336Z,4.20
2018-11-21T12:09:14.650Z,4.20
2018-11-21T12:12:20.207Z,4.20
2018-11-21T12:15:07.742Z,4.10
2018-11-21T12:18:10.384Z,4.10
2018-11-21T12:20:56.590Z,4.10
2018-11-21T12:23:42.704Z,4.10
2018-11-21T12:26:39.052Z,4.10
2018-11-21T12:29:25.242Z,4.00
2018-11-21T12:32:05.095Z,4.00
2018-11-21T12:34:51.401Z,4.00
2018-11-21T12:37:37.551Z,4.10
2018-11-21T12:40:26.450Z,4.20
2018-11-21T12:43:13.475Z,4.20
2018-11-21T12:46:02.526Z,4.20
2018-11-21T12:48:49.151Z,4.20
2018-11-21T12:51:35.296Z,4.20
2018-11-21T12:54:28.589Z,4.10
2018-11-21T12:57:14.682Z,4.10
2018-11-21T13:00:00.757Z,4.10
2018-11-21T13:02:41.515Z,4.10
2018-11-21T13:05:47.546Z,4.20
2018-11-21T13:08:28.870Z,4.20
2018-11-21T13:11:14.960Z,4.20
2018-11-21T13:13:59.005Z,4.20
2018-11-21T13:16:45.092Z,4.10
2018-11-21T13:19:31.379Z,4.20
2018-11-21T13:22:18.922Z,4.20
2018-11-21T13:25:05.039Z,4.20
2018-11-21T13:27:51.493Z,4.30
2018-11-21T13:30:51.122Z,4.40
2018-11-21T13:33:41.143Z,4.40
2018-11-21T13:36:28.665Z,4.40
2018-11-21T13:39:34.660Z,4.30
2018-11-21T13:42:22.196Z,4.20
2018-11-21T13:45:12.514Z,4.20
2018-11-21T13:48:18.237Z,4.20
2018-11-21T13:51:04.406Z,4.20
2018-11-21T13:53:50.787Z,4.30
2018-11-21T13:56:19.207Z,4.20
2018-11-21T13:58:47.560Z,4.10
2018-11-21T14:01:15.935Z,4.10
2018-11-21T14:03:44.314Z,4.20
2018-11-21T14:06:12.726Z,4.20
2018-11-21T14:08:41.136Z,4.30
2018-11-21T14:11:09.497Z,4.30
2018-11-21T14:13:37.886Z,4.20
2018-11-21T14:16:06.289Z,4.10
2018-11-21T14:18:34.712Z,4.10
2018-11-21T14:21:03.090Z,4.10
2018-11-21T14:23:31.469Z,4.10
2018-11-21T14:26:00.415Z,4.00
2018-11-21T14:28:28.899Z,4.00
2018-11-21T14:30:57.268Z,4.00
2018-11-21T14:33:25.644Z,4.00
2018-11-21T14:35:56.129Z,4.10
2018-11-21T14:38:22.363Z,4.10
2018-11-21T14:40:50.760Z,4.10
2018-11-21T14:43:19.109Z,4.00
2018-11-21T14:45:47.466Z,4.00
2018-11-21T14:48:15.860Z,4.00
2018-11-21T14:50:44.186Z,4.00
2018-11-21T14:53:12.568Z,3.90
2018-11-21T14:55:40.919Z,3.90
2018-11-21T14:58:09.293Z,3.90
2018-11-21T15:00:37.657Z,3.90
2018-11-21T15:03:06.345Z,4.00
2018-11-21T15:05:34.779Z,4.00
2018-11-21T15:08:03.160Z,3.90
2018-11-21T15:10:31.540Z,3.90
2018-11-21T15:12:59.924Z,3.90
2018-11-21T15:15:28.336Z,3.90
2018-11-21T15:17:56.689Z,3.90
2018-11-21T15:20:25.808Z,3.90
2018-11-21T15:22:54.173Z,3.90
2018-11-21T15:25:23.343Z,3.90
2018-11-21T15:27:51.750Z,4.00
2018-11-21T15:30:28.097Z,4.00
2018-11-21T15:32:56.447Z,4.00
2018-11-21T15:35:24.945Z,4.00
2018-11-21T15:37:53.553Z,4.00
2018-11-21T15:40:23.164Z,4.00
2018-11-21T15:42:51.515Z,4.00
2018-11-21T15:45:21.297Z,4.00
2018-11-21T15:47:54.114Z,4.00
2018-11-21T15:50:22.462Z,4.00
2018-11-21T15:52:53.083Z,4.00
2018-11-21T15:55:19.477Z,4.00
2018-11-21T15:57:48.004Z,4.00
2018-11-21T16:00:18.379Z,4.10
2018-11-21T16:02:47.759Z,4.10
2018-11-21T16:05:16.861Z,4.00
2018-11-21T16:07:45.239Z,4.00
2018-11-21T16:10:18.895Z,4.00
2018-11-21T16:12:43.362Z,4.00
2018-11-21T16:15:17.340Z,3.90
2018-11-21T16:17:45.764Z,3.90
2018-11-21T16:20:15.214Z,3.90
2018-11-21T16:22:43.575Z,3.90
2018-11-21T16:25:13.489Z,3.90
2018-11-21T16:27:42.713Z,3.90
2018-11-21T16:30:13.246Z,3.90
2018-11-21T16:32:42.048Z,3.90
2018-11-21T16:35:10.810Z,3.90
2018-11-21T16:37:40.009Z,3.90
2018-11-21T16:40:10.414Z,3.90
2018-11-21T16:42:39.240Z,3.90
2018-11-21T16:45:09.151Z,4.00
2018-11-21T16:47:37.743Z,4.00
2018-11-21T16:50:08.982Z,3.90
2018-11-21T16:52:37.368Z,3.90
2018-11-21T16:55:07.299Z,3.90
2018-11-21T16:57:35.668Z,3.90
2018-11-21T17:00:04.719Z,3.90
2018-11-21T17:02:33.061Z,3.90
2018-11-21T17:05:01.459Z,3.90
2018-11-21T17:07:29.859Z,3.90
2018-11-21T17:09:58.275Z,3.80
2018-11-21T17:12:26.630Z,3.80
2018-11-21T17:14:54.995Z,3.80
2018-11-21T17:17:23.357Z,3.80
2018-11-21T17:19:51.773Z,3.80
2018-11-21T17:22:20.217Z,3.80
2018-11-21T17:24:48.675Z,3.90
2018-11-21T17:27:17.083Z,3.90
2018-11-21T17:29:53.590Z,3.80
2018-11-21T17:32:13.852Z,3.80
2018-11-21T17:34:42.220Z,3.80
2018-11-21T17:37:10.574Z,3.80
2018-11-21T17:39:38.943Z,3.80
2018-11-21T17:42:07.335Z,3.80
2018-11-21T17:44:35.716Z,3.80
2018-11-21T17:47:04.120Z,3.90
2018-11-21T17:49:32.497Z,3.90
2018-11-21T17:52:00.904Z,3.90
2018-11-21T17:54:29.289Z,3.90
2018-11-21T17:56:57.676Z,3.90
2018-11-21T17:59:26.092Z,3.90
2018-11-21T18:01:54.503Z,3.90
2018-11-21T18:04:22.884Z,3.80
2018-11-21T18:06:51.250Z,3.80
2018-11-21T18:09:19.595Z,3.80
2018-11-21T18:11:47.975Z,3.80
2018-11-21T18:14:16.358Z,3.80
2018-11-21T18:16:44.728Z,3.90
2018-11-21T18:19:13.108Z,3.90
2018-11-21T18:21:41.464Z,3.90
2018-11-21T18:24:09.852Z,4.10
2018-11-21T18:26:38.522Z,4.10
2018-11-21T18:29:11.622Z,4.10
2018-11-21T18:31:35.266Z,4.00
2018-11-21T18:34:03.662Z,4.00
2018-11-21T18:36:32.026Z,4.00
2018-11-21T18:39:00.412Z,3.90
2018-11-21T18:41:28.798Z,3.90
2018-11-21T18:43:57.178Z,3.90
2018-11-21T18:46:25.580Z,3.90
2018-11-21T18:48:53.938Z,4.00
2018-11-21T18:51:22.301Z,4.00
2018-11-21T18:53:54.767Z,4.00
2018-11-21T18:56:29.177Z,3.90
2018-11-21T18:59:12.415Z,3.90
2018-11-21T19:01:46.606Z,3.90
2018-11-21T19:04:09.167Z,3.90
2018-11-21T19:06:37.603Z,3.90
2018-11-21T19:09:10.359Z,3.90
2018-11-21T19:11:38.747Z,3.90
2018-11-21T19:14:07.737Z,3.90
2018-11-21T19:16:36.334Z,3.90
2018-11-21T19:19:05.011Z,3.90
2018-11-21T19:21:33.418Z,4.00
2018-11-21T19:24:02.165Z,4.00
2018-11-21T19:26:30.747Z,4.00
2018-11-21T19:28:59.116Z,4.00
2018-11-21T19:31:29.771Z,4.10
2018-11-21T19:33:55.879Z,4.00
2018-11-21T19:36:24.240Z,3.90
2018-11-21T19:38:52.616Z,3.80
2018-11-21T19:41:21.005Z,3.80
2018-11-21T19:43:49.413Z,3.80
2018-11-21T19:46:17.792Z,3.80
2018-11-21T19:48:46.182Z,3.80
2018-11-21T19:51:14.630Z,3.90
2018-11-21T19:53:43.019Z,3.90
2018-11-21T19:56:11.413Z,3.90
2018-11-21T19:58:39.831Z,3.80
2018-11-21T20:01:08.233Z,3.80
2018-11-21T20:03:36.595Z,3.70
2018-11-21T20:06:05.450Z,3.80
2018-11-21T20:08:33.813Z,3.70
2018-11-21T20:11:02.158Z,3.70
2018-11-21T20:13:30.553Z,3.70
2018-11-21T20:15:58.922Z,3.70
2018-11-21T20:18:27.344Z,3.60
2018-11-21T20:20:55.844Z,3.60
2018-11-21T20:23:24.264Z,3.50
2018-11-21T20:25:52.630Z,3.60
2018-11-21T20:28:21.046Z,3.50
2018-11-21T20:30:49.410Z,3.40
2018-11-21T20:33:17.918Z,3.40
2018-11-21T20:35:46.280Z,3.30
2018-11-21T20:38:14.656Z,3.30
2018-11-21T20:40:43.214Z,3.30
2018-11-21T20:43:11.562Z,3.30
2018-11-21T20:45:40.008Z,3.30
2018-11-21T20:48:08.429Z,3.30
2018-11-21T20:50:36.806Z,3.30
2018-11-21T20:53:05.754Z,3.30
2018-11-21T20:55:34.744Z,3.30
2018-11-21T20:58:03.104Z,3.30
2018-11-21T21:00:31.974Z,3.30
2018-11-21T21:03:00.351Z,3.30
2018-11-21T21:05:48.112Z,3.30
2018-11-21T21:08:16.506Z,3.30
2018-11-21T21:10:46.121Z,3.30
2018-11-21T21:13:14.471Z,3.30
2018-11-21T21:15:42.952Z,3.20
2018-11-21T21:18:11.389Z,3.20
2018-11-21T21:20:39.766Z,3.20
2018-11-21T21:23:08.129Z,3.20
2018-11-21T21:25:36.509Z,3.10
2018-11-21T21:28:05.159Z,3.10
2018-11-21T21:30:34.157Z,3.10
2018-11-21T21:33:02.733Z,3.10
2018-11-21T21:35:32.535Z,3.10
2018-11-21T21:38:00.883Z,3.20
2018-11-21T21:40:29.264Z,3.10
2018-11-21T21:42:57.625Z,3.20
2018-11-21T21:45:27.677Z,3.20
2018-11-21T21:47:56.053Z,3.20
2018-11-21T21:50:26.069Z,3.20
2018-11-21T21:52:54.406Z,3.20
2018-11-21T21:55:24.120Z,3.20
2018-11-21T21:57:52.421Z,3.20
2018-11-21T22:00:40.200Z,3.20
2018-11-21T22:03:08.538Z,3.20
2018-11-21T22:05:36.889Z,3.30
2018-11-21T22:08:05.744Z,3.30
2018-11-21T22:10:34.110Z,3.30
2018-11-21T22:13:02.501Z,3.20
2018-11-21T22:15:35.247Z,3.20
2018-11-21T22:18:07.934Z,3.20
2018-11-21T22:20:36.352Z,3.20
2018-11-21T22:23:04.717Z,3.20
2018-11-21T22:25:36.366Z,3.30
2018-11-21T22:28:04.846Z,3.30
2018-11-21T22:30:33.220Z,3.30
2018-11-21T22:33:02.010Z,3.20
2018-11-21T22:35:32.224Z,3.20
2018-11-21T22:38:00.602Z,3.10
2018-11-21T22:40:29.180Z,3.20
2018-11-21T22:42:57.546Z,3.20
2018-11-21T22:45:25.914Z,3.20
2018-11-21T22:47:54.246Z,3.20
2018-11-21T22:50:23.824Z,3.30
2018-11-21T22:52:52.261Z,3.20
2018-11-21T22:55:20.995Z,3.20
2018-11-21T22:57:49.829Z,3.20
2018-11-21T23:00:43.391Z,3.20
2018-11-21T23:03:12.762Z,3.20
2018-11-21T23:05:41.223Z,3.20
2018-11-21T23:08:09.674Z,3.20
2018-11-21T23:10:38.014Z,3.20
2018-11-21T23:13:06.414Z,3.20
